Overview Statistics Trail Chart Weather Telemetry Raw packets
 

This is the latest recevied weather packets stored in our database for station/object N7WSS. If no packets are shown the sender has not sent any weather packets the latest 10 day(s).

<< 105 106 107 108 109 110 111 >>
Time Temp. Humidity Pressure Rain* Wind** Luminosity Snow
1787837674 26.67° C 49% 1015.3 hPa 0 mm - - -
1787837369 26.11° C 50% 1015.1 hPa 0 mm - - -
1787837065 26.11° C 50% 1015 hPa 0 mm - - -
1787836764 25.56° C 50% 1014.8 hPa 0 mm - - -
1787836459 25° C 52% 1014.9 hPa 0 mm - - -
1787836154 23.89° C 55% 1014.5 hPa 0 mm - - -
1787835854 23.89° C 55% 1014.4 hPa 0 mm - - -
1787835549 23.89° C 56% 1014.3 hPa 0 mm - - -
1787835244 23.89° C 55% 1014.2 hPa 0 mm - - -
1787834939 23.89° C 55% 1014 hPa 0 mm - - -
1787834638 24.44° C 55% 1014 hPa 0 mm - - -
1787834334 24.44° C 53% 1014 hPa 0 mm - - -
1787834029 24.44° C 53% 1013.9 hPa 0 mm - - -
1787833724 25° C 53% 1013.6 hPa 0 mm - - -
1787833420 25° C 52% 1013.7 hPa 0 mm - - -
1787833115 24.44° C 53% 1013.7 hPa 0 mm - - -
1787832811 25° C 53% 1013.7 hPa 0 mm - - -
1787832506 25° C 52% 1013.6 hPa 0 mm - - -
1787832205 25° C 52% 1013.6 hPa 0 mm - - -
1787831903 24.44° C 52% 1013.5 hPa 0 mm - - -
1787831598 24.44° C 54% 1013.5 hPa 0 mm - - -
1787831298 24.44° C 54% 1013.7 hPa 0 mm - - -
1787830994 24.44° C 54% 1013.8 hPa 0 mm - - -
1787830694 24.44° C 54% 1013.8 hPa 0 mm - - -
1787830392 24.44° C 54% 1013.7 hPa 0 mm - - -

* Rain latest hour (hover to see other rain measurements)
** Current wind speed in m/s (hover to see current wind gust speed)